sensor_id;sensor_type;location;lat;lon;timestamp;pressure;altitude;pressure_sealevel;temperature;humidity
35419;BME280;21525;41.240;16.500;2023-12-20T00:01:33;101643.53;;;14.42;56.48
35419;BME280;21525;41.240;16.500;2023-12-20T00:03:58;101645.28;;;14.43;56.25
35419;BME280;21525;41.240;16.500;2023-12-20T00:06:24;101642.16;;;14.13;56.81
35419;BME280;21525;41.240;16.500;2023-12-20T00:08:50;101640.38;;;14.17;56.96
35419;BME280;21525;41.240;16.500;2023-12-20T00:11:16;101639.50;;;14.18;56.51
35419;BME280;21525;41.240;16.500;2023-12-20T00:13:42;101644.47;;;14.36;56.00
35419;BME280;21525;41.240;16.500;2023-12-20T00:16:07;101635.16;;;14.16;56.57
35419;BME280;21525;41.240;16.500;2023-12-20T00:18:33;101638.41;;;14.31;56.63
35419;BME280;21525;41.240;16.500;2023-12-20T00:20:59;101634.84;;;14.38;56.29
35419;BME280;21525;41.240;16.500;2023-12-20T00:23:24;101635.75;;;14.36;56.52
35419;BME280;21525;41.240;16.500;2023-12-20T00:25:50;101625.28;;;14.34;56.70
35419;BME280;21525;41.240;16.500;2023-12-20T00:28:16;101625.09;;;14.51;56.34
35419;BME280;21525;41.240;16.500;2023-12-20T00:30:42;101619.22;;;14.31;56.73
35419;BME280;21525;41.240;16.500;2023-12-20T00:33:07;101620.88;;;14.38;56.45
35419;BME280;21525;41.240;16.500;2023-12-20T00:35:33;101616.34;;;14.52;56.06
35419;BME280;21525;41.240;16.500;2023-12-20T00:37:59;101616.41;;;14.48;56.07
35419;BME280;21525;41.240;16.500;2023-12-20T00:40:25;101605.25;;;14.32;56.31
35419;BME280;21525;41.240;16.500;2023-12-20T00:42:50;101601.63;;;14.43;56.09
35419;BME280;21525;41.240;16.500;2023-12-20T00:45:16;101594.88;;;14.29;56.64
35419;BME280;21525;41.240;16.500;2023-12-20T00:47:42;101589.47;;;14.41;56.43
35419;BME280;21525;41.240;16.500;2023-12-20T00:50:08;101588.78;;;14.27;56.29
35419;BME280;21525;41.240;16.500;2023-12-20T00:52:34;101583.47;;;14.30;56.36
35419;BME280;21525;41.240;16.500;2023-12-20T00:55:00;101580.72;;;14.42;55.58
35419;BME280;21525;41.240;16.500;2023-12-20T00:57:26;101583.13;;;14.57;55.58
35419;BME280;21525;41.240;16.500;2023-12-20T00:59:51;101573.63;;;14.50;55.71
35419;BME280;21525;41.240;16.500;2023-12-20T01:02:17;101572.13;;;14.31;55.97
35419;BME280;21525;41.240;16.500;2023-12-20T01:04:43;101565.97;;;14.33;56.23
35419;BME280;21525;41.240;16.500;2023-12-20T01:07:09;101562.75;;;14.16;56.86
35419;BME280;21525;41.240;16.500;2023-12-20T01:09:34;101562.47;;;14.36;56.24
35419;BME280;21525;41.240;16.500;2023-12-20T01:12:00;101561.63;;;14.34;56.27
35419;BME280;21525;41.240;16.500;2023-12-20T01:14:26;101552.94;;;14.30;56.39
35419;BME280;21525;41.240;16.500;2023-12-20T01:16:52;101555.38;;;14.44;56.15
35419;BME280;21525;41.240;16.500;2023-12-20T01:19:17;101547.34;;;14.56;55.51
35419;BME280;21525;41.240;16.500;2023-12-20T01:21:43;101549.97;;;14.56;55.57
35419;BME280;21525;41.240;16.500;2023-12-20T01:24:09;101547.81;;;14.24;55.99
35419;BME280;21525;41.240;16.500;2023-12-20T01:26:35;101549.78;;;14.08;56.46
35419;BME280;21525;41.240;16.500;2023-12-20T01:29:00;101543.63;;;14.12;56.74
35419;BME280;21525;41.240;16.500;2023-12-20T01:31:26;101535.75;;;14.16;56.71
35419;BME280;21525;41.240;16.500;2023-12-20T01:33:53;101528.88;;;14.07;57.02
35419;BME280;21525;41.240;16.500;2023-12-20T01:36:18;101525.19;;;14.22;56.51
35419;BME280;21525;41.240;16.500;2023-12-20T01:38:45;101520.66;;;14.31;56.22
35419;BME280;21525;41.240;16.500;2023-12-20T01:41:10;101518.13;;;14.27;56.00
35419;BME280;21525;41.240;16.500;2023-12-20T01:43:36;101515.50;;;14.28;55.74
35419;BME280;21525;41.240;16.500;2023-12-20T01:46:02;101513.06;;;14.16;56.30
35419;BME280;21525;41.240;16.500;2023-12-20T01:48:29;101513.94;;;14.15;55.94
35419;BME280;21525;41.240;16.500;2023-12-20T01:50:55;101511.16;;;14.26;55.45
35419;BME280;21525;41.240;16.500;2023-12-20T01:53:22;101511.38;;;14.12;55.73
35419;BME280;21525;41.240;16.500;2023-12-20T01:55:50;101502.75;;;14.05;55.98
35419;BME280;21525;41.240;16.500;2023-12-20T01:58:18;101502.56;;;14.18;55.74
35419;BME280;21525;41.240;16.500;2023-12-20T02:00:44;101497.34;;;14.16;55.07
35419;BME280;21525;41.240;16.500;2023-12-20T02:03:11;101497.28;;;14.21;54.47
35419;BME280;21525;41.240;16.500;2023-12-20T02:05:37;101488.13;;;13.92;54.90
35419;BME280;21525;41.240;16.500;2023-12-20T02:08:03;101485.47;;;13.95;55.23
35419;BME280;21525;41.240;16.500;2023-12-20T02:10:31;101480.44;;;13.82;55.64
35419;BME280;21525;41.240;16.500;2023-12-20T02:12:57;101466.91;;;14.10;54.69
35419;BME280;21525;41.240;16.500;2023-12-20T02:15:23;101465.34;;;13.99;54.91
35419;BME280;21525;41.240;16.500;2023-12-20T02:17:49;101470.31;;;14.17;54.86
35419;BME280;21525;41.240;16.500;2023-12-20T02:20:15;101470.63;;;14.53;53.92
35419;BME280;21525;41.240;16.500;2023-12-20T02:22:41;101467.66;;;14.19;54.22
35419;BME280;21525;41.240;16.500;2023-12-20T02:25:07;101464.03;;;14.29;53.42
35419;BME280;21525;41.240;16.500;2023-12-20T02:27:33;101462.44;;;14.19;53.70
35419;BME280;21525;41.240;16.500;2023-12-20T02:29:59;101454.34;;;14.32;53.17
35419;BME280;21525;41.240;16.500;2023-12-20T02:32:25;101449.56;;;14.05;54.08
35419;BME280;21525;41.240;16.500;2023-12-20T02:34:54;101451.91;;;14.22;53.38
35419;BME280;21525;41.240;16.500;2023-12-20T02:37:20;101445.81;;;14.23;52.94
35419;BME280;21525;41.240;16.500;2023-12-20T02:39:46;101439.88;;;14.11;53.31
35419;BME280;21525;41.240;16.500;2023-12-20T02:42:11;101439.00;;;14.11;53.37
35419;BME280;21525;41.240;16.500;2023-12-20T02:44:37;101429.81;;;13.87;53.64
35419;BME280;21525;41.240;16.500;2023-12-20T02:47:03;101426.81;;;14.10;53.25
35419;BME280;21525;41.240;16.500;2023-12-20T02:49:29;101432.72;;;14.23;53.07
35419;BME280;21525;41.240;16.500;2023-12-20T02:51:55;101434.63;;;14.11;52.86
35419;BME280;21525;41.240;16.500;2023-12-20T02:54:20;101428.50;;;14.12;53.14
35419;BME280;21525;41.240;16.500;2023-12-20T02:56:47;101431.28;;;14.03;53.64
35419;BME280;21525;41.240;16.500;2023-12-20T02:59:12;101424.25;;;14.07;53.86
35419;BME280;21525;41.240;16.500;2023-12-20T03:01:44;101427.84;;;13.98;53.94
35419;BME280;21525;41.240;16.500;2023-12-20T03:04:10;101422.44;;;14.10;53.62
35419;BME280;21525;41.240;16.500;2023-12-20T03:06:36;101427.47;;;13.66;54.33
35419;BME280;21525;41.240;16.500;2023-12-20T03:09:02;101416.81;;;13.81;53.86
35419;BME280;21525;41.240;16.500;2023-12-20T03:11:28;101417.72;;;13.78;54.14
35419;BME280;21525;41.240;16.500;2023-12-20T03:13:55;101418.94;;;13.55;54.34
35419;BME280;21525;41.240;16.500;2023-12-20T03:16:21;101407.38;;;13.69;53.91
35419;BME280;21525;41.240;16.500;2023-12-20T03:18:46;101410.38;;;13.45;54.65
35419;BME280;21525;41.240;16.500;2023-12-20T03:21:12;101406.84;;;13.48;54.75
35419;BME280;21525;41.240;16.500;2023-12-20T03:23:38;101409.78;;;13.26;55.45
35419;BME280;21525;41.240;16.500;2023-12-20T03:26:07;101406.16;;;13.33;55.65
35419;BME280;21525;41.240;16.500;2023-12-20T03:28:33;101404.06;;;13.60;54.53
35419;BME280;21525;41.240;16.500;2023-12-20T03:30:59;101405.28;;;13.34;55.16
35419;BME280;21525;41.240;16.500;2023-12-20T03:33:25;101405.81;;;13.61;54.75
35419;BME280;21525;41.240;16.500;2023-12-20T03:35:51;101403.97;;;13.66;54.04
35419;BME280;21525;41.240;16.500;2023-12-20T03:38:17;101396.31;;;13.54;55.03
35419;BME280;21525;41.240;16.500;2023-12-20T03:40:43;101391.72;;;13.68;54.79
35419;BME280;21525;41.240;16.500;2023-12-20T03:43:08;101393.28;;;13.81;54.10
35419;BME280;21525;41.240;16.500;2023-12-20T03:45:34;101384.38;;;13.94;53.75
35419;BME280;21525;41.240;16.500;2023-12-20T03:48:00;101380.41;;;14.21;52.98
35419;BME280;21525;41.240;16.500;2023-12-20T03:50:26;101383.66;;;14.34;52.72
35419;BME280;21525;41.240;16.500;2023-12-20T03:52:52;101373.16;;;14.35;52.25
35419;BME280;21525;41.240;16.500;2023-12-20T03:55:18;101364.03;;;14.10;52.36
35419;BME280;21525;41.240;16.500;2023-12-20T03:57:44;101359.38;;;14.27;52.19
35419;BME280;21525;41.240;16.500;2023-12-20T04:00:11;101351.53;;;14.27;52.15
35419;BME280;21525;41.240;16.500;2023-12-20T04:02:40;101360.44;;;14.16;52.39
35419;BME280;21525;41.240;16.500;2023-12-20T04:05:07;101355.69;;;13.88;53.39
35419;BME280;21525;41.240;16.500;2023-12-20T04:07:34;101354.84;;;13.86;53.35
35419;BME280;21525;41.240;16.500;2023-12-20T04:10:00;101348.94;;;13.73;54.08
35419;BME280;21525;41.240;16.500;2023-12-20T04:12:28;101346.69;;;14.03;53.60
35419;BME280;21525;41.240;16.500;2023-12-20T04:14:53;101350.44;;;13.90;53.60
35419;BME280;21525;41.240;16.500;2023-12-20T04:17:20;101348.47;;;14.01;54.01
35419;BME280;21525;41.240;16.500;2023-12-20T04:19:45;101348.63;;;13.93;54.46
35419;BME280;21525;41.240;16.500;2023-12-20T04:24:20;101333.66;;;14.01;54.80
35419;BME280;21525;41.240;16.500;2023-12-20T04:26:47;101336.63;;;13.80;55.68
35419;BME280;21525;41.240;16.500;2023-12-20T04:29:13;101327.59;;;13.98;56.05
35419;BME280;21525;41.240;16.500;2023-12-20T04:31:39;101320.78;;;13.91;57.45
35419;BME280;21525;41.240;16.500;2023-12-20T04:34:05;101319.38;;;14.21;58.05
35419;BME280;21525;41.240;16.500;2023-12-20T04:36:30;101317.38;;;14.33;58.50
35419;BME280;21525;41.240;16.500;2023-12-20T04:38:56;101317.38;;;14.32;59.75
35419;BME280;21525;41.240;16.500;2023-12-20T04:41:22;101307.75;;;14.34;60.19
35419;BME280;21525;41.240;16.500;2023-12-20T04:43:48;101302.19;;;14.54;59.35
35419;BME280;21525;41.240;16.500;2023-12-20T04:46:13;101307.50;;;14.49;59.43
35419;BME280;21525;41.240;16.500;2023-12-20T04:48:39;101298.66;;;14.56;57.37
35419;BME280;21525;41.240;16.500;2023-12-20T04:51:05;101294.03;;;14.67;56.26
35419;BME280;21525;41.240;16.500;2023-12-20T04:53:31;101287.44;;;14.50;56.42
35419;BME280;21525;41.240;16.500;2023-12-20T04:55:57;101288.31;;;14.49;57.09
35419;BME280;21525;41.240;16.500;2023-12-20T04:58:23;101288.19;;;14.55;57.46
35419;BME280;21525;41.240;16.500;2023-12-20T05:00:49;101288.16;;;14.10;58.08
35419;BME280;21525;41.240;16.500;2023-12-20T05:03:15;101290.19;;;14.40;57.53
35419;BME280;21525;41.240;16.500;2023-12-20T05:05:40;101282.53;;;14.30;57.48
35419;BME280;21525;41.240;16.500;2023-12-20T05:08:06;101286.34;;;14.13;57.51
35419;BME280;21525;41.240;16.500;2023-12-20T05:10:32;101294.03;;;14.23;57.33
35419;BME280;21525;41.240;16.500;2023-12-20T05:12:58;101292.31;;;14.22;57.81
35419;BME280;21525;41.240;16.500;2023-12-20T05:15:23;101296.03;;;14.08;58.17
35419;BME280;21525;41.240;16.500;2023-12-20T05:17:49;101284.94;;;14.40;57.28
35419;BME280;21525;41.240;16.500;2023-12-20T05:20:15;101286.78;;;14.37;58.29
35419;BME280;21525;41.240;16.500;2023-12-20T05:22:41;101290.22;;;14.39;58.86
35419;BME280;21525;41.240;16.500;2023-12-20T05:25:07;101282.88;;;14.59;58.34
35419;BME280;21525;41.240;16.500;2023-12-20T05:27:33;101285.34;;;14.65;58.83
35419;BME280;21525;41.240;16.500;2023-12-20T05:29:59;101285.47;;;14.61;58.64
35419;BME280;21525;41.240;16.500;2023-12-20T05:32:24;101274.50;;;14.42;58.94
35419;BME280;21525;41.240;16.500;2023-12-20T05:34:50;101284.06;;;14.43;59.14
35419;BME280;21525;41.240;16.500;2023-12-20T05:37:16;101279.13;;;14.28;59.54
35419;BME280;21525;41.240;16.500;2023-12-20T05:39:42;101276.50;;;14.28;59.72
35419;BME280;21525;41.240;16.500;2023-12-20T05:42:07;101273.56;;;14.44;58.53
35419;BME280;21525;41.240;16.500;2023-12-20T05:44:33;101268.81;;;14.19;59.52
35419;BME280;21525;41.240;16.500;2023-12-20T05:46:59;101268.13;;;14.09;59.53
35419;BME280;21525;41.240;16.500;2023-12-20T05:49:24;101271.00;;;13.95;60.28
35419;BME280;21525;41.240;16.500;2023-12-20T05:51:50;101263.66;;;14.16;60.26
35419;BME280;21525;41.240;16.500;2023-12-20T05:54:16;101267.41;;;14.01;61.29
35419;BME280;21525;41.240;16.500;2023-12-20T05:56:42;101270.34;;;13.83;61.51
35419;BME280;21525;41.240;16.500;2023-12-20T05:59:08;101268.72;;;13.77;62.29
35419;BME280;21525;41.240;16.500;2023-12-20T06:01:34;101271.06;;;13.92;61.42
35419;BME280;21525;41.240;16.500;2023-12-20T06:03:59;101267.19;;;14.13;61.02
35419;BME280;21525;41.240;16.500;2023-12-20T06:06:25;101260.25;;;14.10;62.14
35419;BME280;21525;41.240;16.500;2023-12-20T06:08:51;101261.91;;;14.15;62.40
35419;BME280;21525;41.240;16.500;2023-12-20T06:11:17;101262.25;;;14.42;62.22
35419;BME280;21525;41.240;16.500;2023-12-20T06:13:43;101264.13;;;14.34;62.76
35419;BME280;21525;41.240;16.500;2023-12-20T06:16:08;101263.59;;;14.19;63.53
35419;BME280;21525;41.240;16.500;2023-12-20T06:18:34;101264.91;;;13.96;66.05
35419;BME280;21525;41.240;16.500;2023-12-20T06:21:02;101262.28;;;14.41;65.05
35419;BME280;21525;41.240;16.500;2023-12-20T06:23:28;101261.41;;;14.42;65.34
35419;BME280;21525;41.240;16.500;2023-12-20T06:25:54;101261.38;;;14.43;66.07
35419;BME280;21525;41.240;16.500;2023-12-20T06:28:19;101254.97;;;14.58;66.52
35419;BME280;21525;41.240;16.500;2023-12-20T06:30:45;101252.97;;;14.69;65.75
35419;BME280;21525;41.240;16.500;2023-12-20T06:33:14;101245.47;;;14.54;65.43
35419;BME280;21525;41.240;16.500;2023-12-20T06:35:41;101247.13;;;14.97;61.96
35419;BME280;21525;41.240;16.500;2023-12-20T06:38:07;101250.69;;;15.99;59.91
35419;BME280;21525;41.240;16.500;2023-12-20T06:40:35;101242.47;;;15.81;56.33
35419;BME280;21525;41.240;16.500;2023-12-20T06:43:00;101235.19;;;15.59;56.94
35419;BME280;21525;41.240;16.500;2023-12-20T06:45:26;101239.03;;;15.43;56.61
35419;BME280;21525;41.240;16.500;2023-12-20T06:47:52;101233.50;;;15.55;57.69
35419;BME280;21525;41.240;16.500;2023-12-20T06:50:18;101235.22;;;15.58;57.37
35419;BME280;21525;41.240;16.500;2023-12-20T06:52:43;101237.66;;;15.64;57.03
35419;BME280;21525;41.240;16.500;2023-12-20T06:55:09;101227.69;;;15.78;56.33
35419;BME280;21525;41.240;16.500;2023-12-20T06:57:35;101224.84;;;16.18;55.68
35419;BME280;21525;41.240;16.500;2023-12-20T07:00:02;101226.69;;;16.75;54.44
35419;BME280;21525;41.240;16.500;2023-12-20T07:02:28;101215.41;;;18.27;50.36
35419;BME280;21525;41.240;16.500;2023-12-20T07:04:56;101216.06;;;19.44;47.54
35419;BME280;21525;41.240;16.500;2023-12-20T07:07:21;101211.75;;;20.04;46.00
35419;BME280;21525;41.240;16.500;2023-12-20T07:09:49;101212.69;;;20.42;45.07
35419;BME280;21525;41.240;16.500;2023-12-20T07:12:15;101216.94;;;20.82;44.28
35419;BME280;21525;41.240;16.500;2023-12-20T07:14:41;101211.66;;;21.37;43.80
35419;BME280;21525;41.240;16.500;2023-12-20T07:17:07;101204.81;;;22.00;41.63
35419;BME280;21525;41.240;16.500;2023-12-20T07:19:37;101210.72;;;22.23;41.77
35419;BME280;21525;41.240;16.500;2023-12-20T07:22:04;101206.16;;;22.73;40.24
35419;BME280;21525;41.240;16.500;2023-12-20T07:24:30;101195.03;;;22.83;39.95
35419;BME280;21525;41.240;16.500;2023-12-20T07:26:55;101192.31;;;23.30;39.10
35419;BME280;21525;41.240;16.500;2023-12-20T07:29:21;101187.97;;;23.43;38.70
35419;BME280;21525;41.240;16.500;2023-12-20T07:31:47;101182.97;;;23.68;38.37
35419;BME280;21525;41.240;16.500;2023-12-20T07:34:12;101181.75;;;23.88;37.83
35419;BME280;21525;41.240;16.500;2023-12-20T07:36:38;101180.41;;;24.93;36.58
35419;BME280;21525;41.240;16.500;2023-12-20T07:39:04;101173.78;;;24.72;36.36
35419;BME280;21525;41.240;16.500;2023-12-20T07:41:30;101173.88;;;24.70;36.39
35419;BME280;21525;41.240;16.500;2023-12-20T07:43:56;101175.38;;;25.16;35.89
35419;BME280;21525;41.240;16.500;2023-12-20T07:46:22;101178.66;;;25.06;36.01
35419;BME280;21525;41.240;16.500;2023-12-20T07:48:51;101165.31;;;25.33;35.35
35419;BME280;21525;41.240;16.500;2023-12-20T07:51:16;101165.56;;;25.56;35.15
35419;BME280;21525;41.240;16.500;2023-12-20T07:53:42;101170.16;;;26.04;34.79
35419;BME280;21525;41.240;16.500;2023-12-20T07:56:18;101159.25;;;26.20;34.56
35419;BME280;21525;41.240;16.500;2023-12-20T07:58:44;101156.91;;;26.16;34.88
35419;BME280;21525;41.240;16.500;2023-12-20T08:01:11;101155.50;;;26.35;34.78
35419;BME280;21525;41.240;16.500;2023-12-20T08:03:37;101146.47;;;26.00;34.84
35419;BME280;21525;41.240;16.500;2023-12-20T08:06:04;101146.53;;;26.49;34.41
35419;BME280;21525;41.240;16.500;2023-12-20T08:08:30;101147.09;;;26.16;34.75
35419;BME280;21525;41.240;16.500;2023-12-20T08:10:56;101148.22;;;25.88;34.82
35419;BME280;21525;41.240;16.500;2023-12-20T08:13:26;101153.13;;;26.56;34.71
35419;BME280;21525;41.240;16.500;2023-12-20T08:15:53;101153.78;;;25.20;36.18
35419;BME280;21525;41.240;16.500;2023-12-20T08:18:19;101155.88;;;24.88;36.63
35419;BME280;21525;41.240;16.500;2023-12-20T08:20:44;101150.63;;;24.04;38.00
35419;BME280;21525;41.240;16.500;2023-12-20T08:23:10;101153.88;;;23.37;39.14
35419;BME280;21525;41.240;16.500;2023-12-20T08:25:36;101150.63;;;23.76;39.08
35419;BME280;21525;41.240;16.500;2023-12-20T08:28:02;101154.25;;;23.45;39.88
35419;BME280;21525;41.240;16.500;2023-12-20T08:30:28;101156.63;;;23.50;39.69
35419;BME280;21525;41.240;16.500;2023-12-20T08:32:55;101162.69;;;23.37;40.09
35419;BME280;21525;41.240;16.500;2023-12-20T08:35:21;101152.53;;;23.14;40.42
35419;BME280;21525;41.240;16.500;2023-12-20T08:37:46;101147.56;;;23.54;40.18
35419;BME280;21525;41.240;16.500;2023-12-20T08:40:12;101148.47;;;23.38;40.12
35419;BME280;21525;41.240;16.500;2023-12-20T08:42:39;101140.38;;;23.26;40.17
35419;BME280;21525;41.240;16.500;2023-12-20T08:45:05;101151.06;;;23.54;39.81
35419;BME280;21525;41.240;16.500;2023-12-20T08:47:31;101147.13;;;23.45;39.97
35419;BME280;21525;41.240;16.500;2023-12-20T08:49:56;101144.38;;;23.47;39.99
35419;BME280;21525;41.240;16.500;2023-12-20T08:52:24;101150.13;;;23.55;39.97
35419;BME280;21525;41.240;16.500;2023-12-20T08:54:53;101148.16;;;23.59;39.61
35419;BME280;21525;41.240;16.500;2023-12-20T08:57:22;101148.50;;;23.23;40.13
35419;BME280;21525;41.240;16.500;2023-12-20T08:59:52;101146.19;;;23.46;40.62
35419;BME280;21525;41.240;16.500;2023-12-20T09:02:17;101134.69;;;23.76;40.61
35419;BME280;21525;41.240;16.500;2023-12-20T09:04:43;101137.50;;;23.73;41.52
35419;BME280;21525;41.240;16.500;2023-12-20T09:07:22;101127.47;;;23.78;42.08
35419;BME280;21525;41.240;16.500;2023-12-20T09:09:48;101125.97;;;23.44;42.43
35419;BME280;21525;41.240;16.500;2023-12-20T09:12:14;101131.28;;;23.44;43.00
35419;BME280;21525;41.240;16.500;2023-12-20T09:14:40;101131.41;;;22.51;44.64
35419;BME280;21525;41.240;16.500;2023-12-20T09:17:06;101132.25;;;22.20;46.06
35419;BME280;21525;41.240;16.500;2023-12-20T09:19:34;101115.22;;;22.56;45.75
35419;BME280;21525;41.240;16.500;2023-12-20T09:22:00;101117.03;;;22.55;46.09
35419;BME280;21525;41.240;16.500;2023-12-20T09:24:26;101115.13;;;22.10;47.83
35419;BME280;21525;41.240;16.500;2023-12-20T09:26:52;101106.25;;;22.74;46.96
35419;BME280;21525;41.240;16.500;2023-12-20T09:29:19;101108.41;;;22.04;48.04
35419;BME280;21525;41.240;16.500;2023-12-20T09:31:45;101109.41;;;22.49;47.25
35419;BME280;21525;41.240;16.500;2023-12-20T09:34:13;101110.44;;;22.62;47.83
35419;BME280;21525;41.240;16.500;2023-12-20T09:36:38;101101.38;;;22.82;47.34
35419;BME280;21525;41.240;16.500;2023-12-20T09:39:07;101094.28;;;22.67;46.25
35419;BME280;21525;41.240;16.500;2023-12-20T09:41:37;101101.72;;;22.60;46.28
35419;BME280;21525;41.240;16.500;2023-12-20T09:44:08;101085.47;;;22.66;45.84
35419;BME280;21525;41.240;16.500;2023-12-20T09:46:43;101079.75;;;23.04;44.34
35419;BME280;21525;41.240;16.500;2023-12-20T09:49:10;101072.94;;;23.00;44.39
35419;BME280;21525;41.240;16.500;2023-12-20T09:51:37;101069.41;;;22.99;43.87
35419;BME280;21525;41.240;16.500;2023-12-20T09:54:03;101066.22;;;23.23;43.75
35419;BME280;21525;41.240;16.500;2023-12-20T09:56:30;101068.56;;;22.99;43.50
35419;BME280;21525;41.240;16.500;2023-12-20T09:58:56;101063.03;;;22.88;43.83
35419;BME280;21525;41.240;16.500;2023-12-20T10:01:23;101060.72;;;23.11;43.41
35419;BME280;21525;41.240;16.500;2023-12-20T10:03:51;101057.88;;;23.15;43.21
35419;BME280;21525;41.240;16.500;2023-12-20T10:06:18;101044.47;;;22.88;43.50
35419;BME280;21525;41.240;16.500;2023-12-20T10:08:44;101032.47;;;23.10;43.95
35419;BME280;21525;41.240;16.500;2023-12-20T10:11:10;101041.63;;;22.91;44.10
35419;BME280;21525;41.240;16.500;2023-12-20T10:13:40;101031.50;;;22.97;44.11
35419;BME280;21525;41.240;16.500;2023-12-20T10:16:09;101028.50;;;23.46;43.18
35419;BME280;21525;41.240;16.500;2023-12-20T10:18:35;101027.28;;;23.23;43.12
35419;BME280;21525;41.240;16.500;2023-12-20T10:21:02;101013.69;;;22.39;43.34
35419;BME280;21525;41.240;16.500;2023-12-20T10:23:29;101014.88;;;21.71;45.27
35419;BME280;21525;41.240;16.500;2023-12-20T10:25:57;101013.94;;;21.72;45.26
35419;BME280;21525;41.240;16.500;2023-12-20T10:28:23;101003.75;;;22.43;44.90
35419;BME280;21525;41.240;16.500;2023-12-20T10:30:56;101003.88;;;22.71;44.11
35419;BME280;21525;41.240;16.500;2023-12-20T10:33:26;101007.13;;;21.35;45.97
35419;BME280;21525;41.240;16.500;2023-12-20T10:35:52;100989.84;;;21.92;45.39
35419;BME280;21525;41.240;16.500;2023-12-20T10:38:18;100985.31;;;22.26;45.21
35419;BME280;21525;41.240;16.500;2023-12-20T10:40:45;100996.31;;;21.55;46.90
35419;BME280;21525;41.240;16.500;2023-12-20T10:43:12;100991.81;;;21.73;48.01
35419;BME280;21525;41.240;16.500;2023-12-20T10:45:38;100983.59;;;22.40;47.12
35419;BME280;21525;41.240;16.500;2023-12-20T10:48:04;100978.19;;;23.02;45.55
35419;BME280;21525;41.240;16.500;2023-12-20T10:50:31;100981.97;;;22.98;44.33
35419;BME280;21525;41.240;16.500;2023-12-20T10:52:59;100981.50;;;23.05;44.09
35419;BME280;21525;41.240;16.500;2023-12-20T10:55:25;100977.59;;;23.11;44.12
35419;BME280;21525;41.240;16.500;2023-12-20T10:57:52;100968.34;;;23.04;44.77
35419;BME280;21525;41.240;16.500;2023-12-20T11:00:18;100970.03;;;22.61;45.85
35419;BME280;21525;41.240;16.500;2023-12-20T11:02:45;100966.19;;;22.51;46.01
35419;BME280;21525;41.240;16.500;2023-12-20T11:05:22;100968.72;;;22.38;46.22
35419;BME280;21525;41.240;16.500;2023-12-20T11:07:55;100963.03;;;22.44;45.96
35419;BME280;21525;41.240;16.500;2023-12-20T11:13:58;100962.41;;;22.85;46.37
35419;BME280;21525;41.240;16.500;2023-12-20T11:16:26;100952.78;;;23.12;46.35
35419;BME280;21525;41.240;16.500;2023-12-20T11:18:51;100958.56;;;23.04;46.30
35419;BME280;21525;41.240;16.500;2023-12-20T11:21:18;100959.31;;;22.62;47.38
35419;BME280;21525;41.240;16.500;2023-12-20T11:23:44;100950.13;;;21.92;49.29
35419;BME280;21525;41.240;16.500;2023-12-20T11:26:09;100942.56;;;22.62;48.18
35419;BME280;21525;41.240;16.500;2023-12-20T11:28:35;100945.13;;;22.03;50.08
35419;BME280;21525;41.240;16.500;2023-12-20T11:31:02;100942.19;;;21.61;51.08
35419;BME280;21525;41.240;16.500;2023-12-20T11:33:36;100938.25;;;21.36;51.79
35419;BME280;21525;41.240;16.500;2023-12-20T11:36:02;100934.59;;;20.89;54.03
35419;BME280;21525;41.240;16.500;2023-12-20T11:38:37;100921.28;;;21.72;51.91
35419;BME280;21525;41.240;16.500;2023-12-20T11:41:05;100917.06;;;21.52;52.39
35419;BME280;21525;41.240;16.500;2023-12-20T11:43:38;100918.00;;;21.98;51.26
35419;BME280;21525;41.240;16.500;2023-12-20T11:46:08;100915.81;;;21.43;52.90
35419;BME280;21525;41.240;16.500;2023-12-20T11:48:38;100901.19;;;21.84;52.22
35419;BME280;21525;41.240;16.500;2023-12-20T11:51:10;100894.53;;;21.12;53.99
35419;BME280;21525;41.240;16.500;2023-12-20T11:53:36;100902.31;;;21.64;52.94
35419;BME280;21525;41.240;16.500;2023-12-20T11:56:03;100891.78;;;21.46;53.05
35419;BME280;21525;41.240;16.500;2023-12-20T11:58:29;100898.59;;;21.98;52.84
35419;BME280;21525;41.240;16.500;2023-12-20T12:00:56;100906.00;;;22.23;52.16
35419;BME280;21525;41.240;16.500;2023-12-20T12:03:22;100906.66;;;22.56;51.34
35419;BME280;21525;41.240;16.500;2023-12-20T12:05:49;100898.28;;;21.57;53.54
35419;BME280;21525;41.240;16.500;2023-12-20T12:08:16;100901.75;;;21.10;55.45
35419;BME280;21525;41.240;16.500;2023-12-20T12:10:43;100895.13;;;21.50;54.96
35419;BME280;21525;41.240;16.500;2023-12-20T12:13:10;100894.28;;;21.50;54.68
35419;BME280;21525;41.240;16.500;2023-12-20T12:15:36;100894.03;;;21.70;54.70
35419;BME280;21525;41.240;16.500;2023-12-20T12:18:03;100890.25;;;22.05;54.48
35419;BME280;21525;41.240;16.500;2023-12-20T12:20:29;100883.31;;;21.87;54.66
35419;BME280;21525;41.240;16.500;2023-12-20T12:23:04;100879.03;;;22.00;54.44
35419;BME280;21525;41.240;16.500;2023-12-20T12:25:31;100868.13;;;21.91;54.75
35419;BME280;21525;41.240;16.500;2023-12-20T12:27:58;100868.91;;;21.45;55.40
35419;BME280;21525;41.240;16.500;2023-12-20T12:30:24;100861.72;;;22.25;54.70
35419;BME280;21525;41.240;16.500;2023-12-20T12:32:53;100853.06;;;22.37;53.60
35419;BME280;21525;41.240;16.500;2023-12-20T12:35:20;100838.56;;;22.42;53.45
35419;BME280;21525;41.240;16.500;2023-12-20T12:37:46;100840.22;;;22.15;54.81
35419;BME280;21525;41.240;16.500;2023-12-20T12:40:13;100841.28;;;21.97;55.79
35419;BME280;21525;41.240;16.500;2023-12-20T12:42:39;100846.63;;;21.65;56.80